sensor_id;sensor_type;location;lat;lon;timestamp;temperature;humidity
3564;DHT22;1796;52.388;13.096;2023-08-20T17:18:10;27.50;99.90
3564;DHT22;1796;52.388;13.096;2023-08-20T17:20:38;27.20;99.90
3564;DHT22;1796;52.388;13.096;2023-08-20T17:23:05;27.10;99.90
3564;DHT22;1796;52.388;13.096;2023-08-20T17:25:32;27.00;99.90
3564;DHT22;1796;52.388;13.096;2023-08-20T17:27:59;27.00;99.90
3564;DHT22;1796;52.388;13.096;2023-08-20T17:30:26;26.90;99.90
3564;DHT22;1796;52.388;13.096;2023-08-20T17:32:52;26.80;99.90
3564;DHT22;1796;52.388;13.096;2023-08-20T17:35:21;26.80;99.90
3564;DHT22;1796;52.388;13.096;2023-08-20T17:37:47;26.70;99.90
3564;DHT22;1796;52.388;13.096;2023-08-20T17:40:14;26.70;99.90
3564;DHT22;1796;52.388;13.096;2023-08-20T17:42:41;26.60;99.90
3564;DHT22;1796;52.388;13.096;2023-08-20T17:45:08;26.60;99.90
3564;DHT22;1796;52.388;13.096;2023-08-20T17:47:35;26.60;99.90
3564;DHT22;1796;52.388;13.096;2023-08-20T17:50:03;26.50;99.90
3564;DHT22;1796;52.388;13.096;2023-08-20T17:52:31;26.40;99.90
3564;DHT22;1796;52.388;13.096;2023-08-20T17:54:58;26.40;99.90
3564;DHT22;1796;52.388;13.096;2023-08-20T17:57:25;26.30;99.90
3564;DHT22;1796;52.388;13.096;2023-08-20T17:59:52;26.20;99.90
3564;DHT22;1796;52.388;13.096;2023-08-20T18:02:19;26.20;99.90
3564;DHT22;1796;52.388;13.096;2023-08-20T18:04:46;26.20;99.90
3564;DHT22;1796;52.388;13.096;2023-08-20T18:07:16;26.10;99.90
3564;DHT22;1796;52.388;13.096;2023-08-20T18:09:45;26.00;99.90
3564;DHT22;1796;52.388;13.096;2023-08-20T18:12:12;26.00;99.90
3564;DHT22;1796;52.388;13.096;2023-08-20T18:14:39;26.00;99.90
3564;DHT22;1796;52.388;13.096;2023-08-20T18:17:06;25.80;99.90
3564;DHT22;1796;52.388;13.096;2023-08-20T18:19:33;25.80;99.90
3564;DHT22;1796;52.388;13.096;2023-08-20T18:22:00;25.70;99.90
3564;DHT22;1796;52.388;13.096;2023-08-20T18:24:28;25.70;99.90
3564;DHT22;1796;52.388;13.096;2023-08-20T18:26:56;25.60;99.90
3564;DHT22;1796;52.388;13.096;2023-08-20T18:29:24;25.40;99.90
3564;DHT22;1796;52.388;13.096;2023-08-20T18:31:51;25.30;99.90
3564;DHT22;1796;52.388;13.096;2023-08-20T18:34:18;25.20;99.90
3564;DHT22;1796;52.388;13.096;2023-08-20T18:36:45;25.10;99.90
3564;DHT22;1796;52.388;13.096;2023-08-20T18:39:13;25.00;99.90
3564;DHT22;1796;52.388;13.096;2023-08-20T18:41:40;25.00;99.90
3564;DHT22;1796;52.388;13.096;2023-08-20T18:44:09;24.80;99.90
3564;DHT22;1796;52.388;13.096;2023-08-20T18:46:36;24.80;99.90
3564;DHT22;1796;52.388;13.096;2023-08-20T18:49:03;24.80;99.90
3564;DHT22;1796;52.388;13.096;2023-08-20T18:51:30;24.70;99.90
3564;DHT22;1796;52.388;13.096;2023-08-20T18:53:57;24.70;99.90
3564;DHT22;1796;52.388;13.096;2023-08-20T18:56:24;24.70;99.90
3564;DHT22;1796;52.388;13.096;2023-08-20T18:58:51;24.60;99.90
3564;DHT22;1796;52.388;13.096;2023-08-20T19:01:19;24.60;99.90
3564;DHT22;1796;52.388;13.096;2023-08-20T19:03:46;24.50;99.90
3564;DHT22;1796;52.388;13.096;2023-08-20T19:06:13;24.50;99.90
3564;DHT22;1796;52.388;13.096;2023-08-20T19:08:39;24.50;99.90
3564;DHT22;1796;52.388;13.096;2023-08-20T19:11:07;24.40;99.90
3564;DHT22;1796;52.388;13.096;2023-08-20T19:13:34;24.40;99.90
3564;DHT22;1796;52.388;13.096;2023-08-20T19:16:01;24.40;99.90
3564;DHT22;1796;52.388;13.096;2023-08-20T19:18:29;24.40;99.90
3564;DHT22;1796;52.388;13.096;2023-08-20T19:20:56;24.30;99.90
3564;DHT22;1796;52.388;13.096;2023-08-20T19:23:23;24.20;99.90
3564;DHT22;1796;52.388;13.096;2023-08-20T19:25:52;24.20;99.90
3564;DHT22;1796;52.388;13.096;2023-08-20T19:28:19;24.20;99.90
3564;DHT22;1796;52.388;13.096;2023-08-20T19:30:47;24.20;99.90
3564;DHT22;1796;52.388;13.096;2023-08-20T19:33:16;24.20;99.90
3564;DHT22;1796;52.388;13.096;2023-08-20T19:35:44;24.10;99.90
3564;DHT22;1796;52.388;13.096;2023-08-20T19:38:12;24.00;99.90
3564;DHT22;1796;52.388;13.096;2023-08-20T19:40:39;24.00;99.90
3564;DHT22;1796;52.388;13.096;2023-08-20T19:43:06;23.90;99.90
3564;DHT22;1796;52.388;13.096;2023-08-20T19:45:33;23.80;99.90
3564;DHT22;1796;52.388;13.096;2023-08-20T19:47:59;23.80;99.90
3564;DHT22;1796;52.388;13.096;2023-08-20T19:50:27;23.80;99.90
3564;DHT22;1796;52.388;13.096;2023-08-20T19:52:55;23.80;99.90
3564;DHT22;1796;52.388;13.096;2023-08-20T19:55:23;23.80;99.90
3564;DHT22;1796;52.388;13.096;2023-08-20T19:57:49;23.70;99.90
3564;DHT22;1796;52.388;13.096;2023-08-20T20:00:16;23.60;99.90
3564;DHT22;1796;52.388;13.096;2023-08-20T20:02:45;23.60;99.90
3564;DHT22;1796;52.388;13.096;2023-08-20T20:05:12;23.60;99.90
3564;DHT22;1796;52.388;13.096;2023-08-20T20:07:39;23.50;99.90
3564;DHT22;1796;52.388;13.096;2023-08-20T20:10:09;23.40;99.90
3564;DHT22;1796;52.388;13.096;2023-08-20T20:12:36;23.30;99.90
3564;DHT22;1796;52.388;13.096;2023-08-20T20:15:05;23.20;99.90
3564;DHT22;1796;52.388;13.096;2023-08-20T20:17:32;23.20;99.90
3564;DHT22;1796;52.388;13.096;2023-08-20T20:19:59;23.10;99.90
3564;DHT22;1796;52.388;13.096;2023-08-20T20:22:26;23.10;99.90
3564;DHT22;1796;52.388;13.096;2023-08-20T20:24:54;23.00;99.90
3564;DHT22;1796;52.388;13.096;2023-08-20T20:27:23;22.90;99.90
3564;DHT22;1796;52.388;13.096;2023-08-20T20:29:50;22.90;99.90
3564;DHT22;1796;52.388;13.096;2023-08-20T20:32:17;22.90;99.90
3564;DHT22;1796;52.388;13.096;2023-08-20T20:34:44;22.90;99.90
3564;DHT22;1796;52.388;13.096;2023-08-20T20:37:12;22.90;99.90
3564;DHT22;1796;52.388;13.096;2023-08-20T20:39:39;22.80;99.90
3564;DHT22;1796;52.388;13.096;2023-08-20T20:42:06;22.80;99.90
3564;DHT22;1796;52.388;13.096;2023-08-20T20:44:34;22.70;99.90
3564;DHT22;1796;52.388;13.096;2023-08-20T20:47:01;22.50;99.90
3564;DHT22;1796;52.388;13.096;2023-08-20T20:49:28;22.40;99.90
3564;DHT22;1796;52.388;13.096;2023-08-20T20:51:56;22.40;99.90
3564;DHT22;1796;52.388;13.096;2023-08-20T20:54:24;22.40;99.90
3564;DHT22;1796;52.388;13.096;2023-08-20T20:56:51;22.40;99.90
3564;DHT22;1796;52.388;13.096;2023-08-20T20:59:18;22.40;99.90
3564;DHT22;1796;52.388;13.096;2023-08-20T21:01:46;22.30;99.90
3564;DHT22;1796;52.388;13.096;2023-08-20T21:04:13;22.30;99.90
3564;DHT22;1796;52.388;13.096;2023-08-20T21:06:39;22.30;99.90
3564;DHT22;1796;52.388;13.096;2023-08-20T21:09:06;22.20;99.90
3564;DHT22;1796;52.388;13.096;2023-08-20T21:11:33;22.10;99.90
3564;DHT22;1796;52.388;13.096;2023-08-20T21:14:00;22.00;99.90
3564;DHT22;1796;52.388;13.096;2023-08-20T21:16:27;22.00;99.90
3564;DHT22;1796;52.388;13.096;2023-08-20T21:18:55;22.00;99.90
3564;DHT22;1796;52.388;13.096;2023-08-20T21:21:22;21.90;99.90
3564;DHT22;1796;52.388;13.096;2023-08-20T21:23:49;21.80;99.90
3564;DHT22;1796;52.388;13.096;2023-08-20T21:26:21;21.80;99.90
3564;DHT22;1796;52.388;13.096;2023-08-20T21:28:47;21.70;99.90
3564;DHT22;1796;52.388;13.096;2023-08-20T21:31:14;21.60;99.90
3564;DHT22;1796;52.388;13.096;2023-08-20T21:33:41;21.60;99.90
3564;DHT22;1796;52.388;13.096;2023-08-20T21:36:09;21.60;99.90
3564;DHT22;1796;52.388;13.096;2023-08-20T21:38:36;21.50;99.90
3564;DHT22;1796;52.388;13.096;2023-08-20T21:41:03;21.50;99.90
3564;DHT22;1796;52.388;13.096;2023-08-20T21:43:30;21.50;99.90
3564;DHT22;1796;52.388;13.096;2023-08-20T21:45:56;21.60;99.90
3564;DHT22;1796;52.388;13.096;2023-08-20T21:48:23;21.60;99.90
3564;DHT22;1796;52.388;13.096;2023-08-20T21:50:50;21.60;99.90
3564;DHT22;1796;52.388;13.096;2023-08-20T21:53:18;21.60;99.90
3564;DHT22;1796;52.388;13.096;2023-08-20T21:55:53;21.60;99.90
3564;DHT22;1796;52.388;13.096;2023-08-20T21:58:20;21.50;99.90
3564;DHT22;1796;52.388;13.096;2023-08-20T22:00:47;21.50;99.90
3564;DHT22;1796;52.388;13.096;2023-08-20T22:03:14;21.40;99.90
3564;DHT22;1796;52.388;13.096;2023-08-20T22:05:41;21.40;99.90
3564;DHT22;1796;52.388;13.096;2023-08-20T22:08:08;21.30;99.90
3564;DHT22;1796;52.388;13.096;2023-08-20T22:10:39;21.40;99.90
3564;DHT22;1796;52.388;13.096;2023-08-20T22:13:07;21.30;99.90
3564;DHT22;1796;52.388;13.096;2023-08-20T22:15:34;21.40;99.90
3564;DHT22;1796;52.388;13.096;2023-08-20T22:18:01;21.30;99.90
3564;DHT22;1796;52.388;13.096;2023-08-20T22:20:28;21.30;99.90
3564;DHT22;1796;52.388;13.096;2023-08-20T22:22:55;21.30;99.90
3564;DHT22;1796;52.388;13.096;2023-08-20T22:25:22;21.20;99.90
3564;DHT22;1796;52.388;13.096;2023-08-20T22:27:50;21.20;99.90
3564;DHT22;1796;52.388;13.096;2023-08-20T22:30:17;21.10;99.90
3564;DHT22;1796;52.388;13.096;2023-08-20T22:32:44;21.10;99.90
3564;DHT22;1796;52.388;13.096;2023-08-20T22:35:11;21.10;99.90
3564;DHT22;1796;52.388;13.096;2023-08-20T22:37:38;21.20;99.90
3564;DHT22;1796;52.388;13.096;2023-08-20T22:40:06;21.20;99.90
3564;DHT22;1796;52.388;13.096;2023-08-20T22:42:33;21.20;99.90
3564;DHT22;1796;52.388;13.096;2023-08-20T22:45:01;21.10;99.90
3564;DHT22;1796;52.388;13.096;2023-08-20T22:47:29;21.10;99.90
3564;DHT22;1796;52.388;13.096;2023-08-20T22:49:56;21.10;99.90
3564;DHT22;1796;52.388;13.096;2023-08-20T22:52:22;21.10;99.90
3564;DHT22;1796;52.388;13.096;2023-08-20T22:54:49;21.10;99.90
3564;DHT22;1796;52.388;13.096;2023-08-20T22:57:16;21.10;99.90
3564;DHT22;1796;52.388;13.096;2023-08-20T22:59:43;21.00;99.90
3564;DHT22;1796;52.388;13.096;2023-08-20T23:02:11;21.00;99.90
3564;DHT22;1796;52.388;13.096;2023-08-20T23:04:41;21.00;99.90
3564;DHT22;1796;52.388;13.096;2023-08-20T23:07:08;21.10;99.90
3564;DHT22;1796;52.388;13.096;2023-08-20T23:09:35;21.00;99.90
3564;DHT22;1796;52.388;13.096;2023-08-20T23:12:02;20.90;99.90
3564;DHT22;1796;52.388;13.096;2023-08-20T23:14:29;20.80;99.90
3564;DHT22;1796;52.388;13.096;2023-08-20T23:16:56;20.70;99.90
3564;DHT22;1796;52.388;13.096;2023-08-20T23:19:24;20.60;99.90
3564;DHT22;1796;52.388;13.096;2023-08-20T23:21:52;20.60;99.90
3564;DHT22;1796;52.388;13.096;2023-08-20T23:24:18;20.50;99.90
3564;DHT22;1796;52.388;13.096;2023-08-20T23:26:46;20.50;99.90
3564;DHT22;1796;52.388;13.096;2023-08-20T23:29:13;20.50;99.90
3564;DHT22;1796;52.388;13.096;2023-08-20T23:31:40;20.40;99.90
3564;DHT22;1796;52.388;13.096;2023-08-20T23:34:07;20.30;99.90
3564;DHT22;1796;52.388;13.096;2023-08-20T23:36:35;20.30;99.90
3564;DHT22;1796;52.388;13.096;2023-08-20T23:39:02;20.20;99.90
3564;DHT22;1796;52.388;13.096;2023-08-20T23:41:30;20.20;99.90
3564;DHT22;1796;52.388;13.096;2023-08-20T23:43:56;20.20;99.90
3564;DHT22;1796;52.388;13.096;2023-08-20T23:46:23;20.20;99.90
3564;DHT22;1796;52.388;13.096;2023-08-20T23:48:50;20.20;99.90
3564;DHT22;1796;52.388;13.096;2023-08-20T23:51:17;20.20;99.90
3564;DHT22;1796;52.388;13.096;2023-08-20T23:53:45;20.10;99.90
3564;DHT22;1796;52.388;13.096;2023-08-20T23:56:12;20.10;99.90
3564;DHT22;1796;52.388;13.096;2023-08-20T23:58:39;20.00;99.90
